Greenwood, Virginia
Current Conditions -  °F | °C
As of 2:55 PM on Sunday 23 Nov 2014 (Local Time) from KW13 Reporting Station
Scattered Clouds Scattered Clouds  
Wind Chill: 56°   Ceiling: Unl
Heat Index: 56°   Visibility: 10mi
Dew Point: 46°   Wind: 15mph
Humidity: 68%   Direction: 180°S
Pressure: 30.04"   Gusts: 22mph
Location:  38.05°N, 78.77°W
Report Text: KW13 231955Z AUTO 18013G19KT 10SM SCT070 13/08 A3004 RMK AO1 T01330075
Loading
Personal Weather Stations






























Interactive Weather Map New forecast layout! Learn more

10-Day Weather Forecast

Advertisements
Track Severe Weather on mobile